Time;durP1;ratioP1;P1;durP2;ratioP2;P2;SDS_P1;SDS_P2;PMS_P1;PMS_P2;Temp;Humidity;BMP_temperature;BMP_pressure;BME280_temperature;BME280_humidity;BME280_pressure;Samples;Min_cycle;Max_cycle;Signal;HPM_P1;HPM_P2
2023/08/07 00:00:12;;;;;;;0.40;0.40;;;24.50;51.20;;;;;;5079389;28;20067;-65
2023/08/07 00:02:38;;;;;;;0.55;0.52;;;24.60;51.20;;;;;;5080786;28;20098;-65
2023/08/07 00:05:04;;;;;;;0.70;0.50;;;24.60;51.20;;;;;;5081566;28;20027;-68
2023/08/07 00:07:30;;;;;;;1.02;0.60;;;24.60;51.20;;;;;;5077221;28;20036;-68
2023/08/07 00:09:55;;;;;;;0.80;0.50;;;24.50;51.20;;;;;;5076876;28;20024;-68
2023/08/07 00:12:21;;;;;;;0.55;0.50;;;24.50;51.20;;;;;;5076467;28;20035;-68
2023/08/07 00:14:53;;;;;;;0.60;0.60;;;24.50;51.20;;;;;;5077968;28;20100;-67
2023/08/07 00:17:18;;;;;;;0.70;0.60;;;24.50;51.20;;;;;;5076781;28;20031;-68
2023/08/07 00:19:44;;;;;;;0.50;0.50;;;24.50;51.20;;;;;;5077383;28;20025;-68
2023/08/07 00:22:09;;;;;;;0.45;0.40;;;24.50;51.70;;;;;;5079798;28;20035;-70
2023/08/07 00:24:35;;;;;;;0.55;0.55;;;24.50;51.20;;;;;;5078484;28;20052;-69
2023/08/07 00:27:01;;;;;;;0.85;0.50;;;24.50;51.20;;;;;;5077849;28;20111;-68
2023/08/07 00:29:27;;;;;;;0.60;0.50;;;24.50;51.20;;;;;;5076522;28;20024;-67
2023/08/07 00:31:52;;;;;;;0.52;0.50;;;24.50;51.20;;;;;;5061952;28;20024;-67
2023/08/07 00:34:18;;;;;;;0.65;0.60;;;24.50;51.10;;;;;;5079100;28;20028;-67
2023/08/07 00:36:43;;;;;;;0.60;0.60;;;24.50;51.20;;;;;;5080196;28;20077;-67
2023/08/07 00:39:09;;;;;;;0.47;0.43;;;24.50;51.10;;;;;;5067331;28;20028;-68
2023/08/07 00:41:35;;;;;;;0.82;0.57;;;24.50;51.10;;;;;;5077975;28;20031;-67
2023/08/07 00:44:00;;;;;;;0.70;0.50;;;24.50;51.20;;;;;;5077077;28;20419;-67
2023/08/07 00:46:28;;;;;;;0.68;0.50;;;24.40;51.10;;;;;;5078275;28;20781;-67
2023/08/07 00:48:54;;;;;;;0.60;0.50;;;24.40;51.10;;;;;;5061663;28;20020;-69
2023/08/07 00:51:21;;;;;;;0.60;0.55;;;24.40;51.10;;;;;;5079900;28;20122;-68
2023/08/07 00:53:48;;;;;;;0.40;0.40;;;24.40;51.10;;;;;;5078432;28;20526;-67
2023/08/07 00:56:14;;;;;;;0.57;0.50;;;24.40;51.10;;;;;;5077778;28;20081;-70
2023/08/07 00:58:40;;;;;;;0.50;0.50;;;24.40;51.10;;;;;;5076730;28;20111;-69
2023/08/07 01:01:06;;;;;;;0.50;0.50;;;24.40;51.10;;;;;;5079174;28;20186;-69
2023/08/07 01:03:31;;;;;;;0.70;0.50;;;24.40;51.10;;;;;;5077685;28;20032;-70
2023/08/07 01:05:57;;;;;;;0.43;0.43;;;24.30;51.00;;;;;;5079110;28;20027;-69
2023/08/07 01:08:24;;;;;;;0.45;0.45;;;24.40;51.10;;;;;;5080126;28;20028;-69
2023/08/07 01:11:09;;;;;;;1.02;0.52;;;24.30;51.00;;;;;;5076661;28;20435;-69
2023/08/07 01:13:55;;;;;;;1.10;0.60;;;24.30;51.10;;;;;;5077610;28;20058;-67
2023/08/07 01:16:39;;;;;;;0.40;0.40;;;24.30;51.00;;;;;;5077037;28;20123;-67
2023/08/07 01:19:12;;;;;;;0.68;0.55;;;24.30;51.00;;;;;;5078257;28;20028;-67
2023/08/07 01:21:38;;;;;;;0.50;0.50;;;24.30;51.10;;;;;;5075632;28;20036;-67
2023/08/07 01:24:03;;;;;;;0.55;0.40;;;24.30;51.00;;;;;;5077326;28;20034;-69
2023/08/07 01:26:29;;;;;;;0.40;0.40;;;24.30;51.10;;;;;;5077733;28;20093;-67
2023/08/07 01:29:12;;;;;;;0.60;0.50;;;24.30;51.00;;;;;;5079116;28;20373;-67
2023/08/07 01:31:40;;;;;;;0.50;0.50;;;24.30;51.10;;;;;;5078526;28;20522;-67
2023/08/07 01:34:12;;;;;;;1.00;0.50;;;24.30;51.10;;;;;;5077811;28;20063;-69
2023/08/07 01:36:39;;;;;;;0.40;0.40;;;24.30;51.10;;;;;;5066420;28;20025;-67
2023/08/07 01:39:06;;;;;;;0.60;0.40;;;24.30;51.10;;;;;;5081209;28;20575;-67
2023/08/07 01:41:33;;;;;;;0.63;0.50;;;24.30;51.10;;;;;;5083181;28;20454;-67
2023/08/07 01:43:59;;;;;;;1.35;0.50;;;24.30;51.10;;;;;;5081430;28;20393;-67
2023/08/07 01:46:25;;;;;;;0.50;0.50;;;24.30;51.10;;;;;;5081458;28;20120;-67
2023/08/07 01:48:50;;;;;;;0.60;0.50;;;24.30;51.10;;;;;;5081245;28;20476;-69
2023/08/07 01:51:16;;;;;;;0.68;0.50;;;24.20;51.00;;;;;;5077768;28;20391;-68
2023/08/07 01:53:42;;;;;;;0.40;0.40;;;24.30;51.10;;;;;;5079638;28;20032;-68
2023/08/07 01:56:07;;;;;;;0.40;0.40;;;24.20;51.00;;;;;;5079133;28;20051;-67
2023/08/07 01:58:33;;;;;;;0.40;0.40;;;24.20;51.00;;;;;;5061208;28;20023;-67
2023/08/07 02:01:00;;;;;;;0.47;0.47;;;24.20;51.00;;;;;;5079575;28;20114;-67
2023/08/07 02:03:25;;;;;;;0.85;0.52;;;24.20;51.00;;;;;;5081469;28;20028;-67
2023/08/07 02:05:51;;;;;;;0.63;0.50;;;24.20;51.00;;;;;;5082216;28;20103;-68
2023/08/07 02:08:17;;;;;;;0.40;0.40;;;24.20;51.00;;;;;;5081864;28;20028;-68
2023/08/07 02:10:42;;;;;;;0.70;0.50;;;24.20;51.00;;;;;;5080979;28;20030;-66
2023/08/07 02:13:08;;;;;;;0.45;0.43;;;24.20;51.00;;;;;;5082745;28;20111;-67
2023/08/07 02:15:34;;;;;;;0.75;0.60;;;24.20;51.00;;;;;;5080562;28;20028;-67
2023/08/07 02:17:59;;;;;;;0.43;0.40;;;24.10;51.00;;;;;;5082373;28;20402;-67
2023/08/07 02:20:25;;;;;;;0.50;0.50;;;24.20;51.00;;;;;;5071712;28;20039;-67
2023/08/07 02:22:50;;;;;;;0.65;0.50;;;24.20;51.00;;;;;;5080410;28;20067;-67
2023/08/07 02:25:16;;;;;;;0.50;0.50;;;24.20;51.00;;;;;;5082821;28;20494;-67
2023/08/07 02:27:42;;;;;;;0.82;0.40;;;24.10;51.00;;;;;;5078070;28;20029;-67
2023/08/07 02:30:07;;;;;;;0.50;0.50;;;24.10;51.00;;;;;;5078670;28;20025;-67
2023/08/07 02:32:33;;;;;;;0.50;0.50;;;24.10;51.00;;;;;;5080410;28;20028;-67
2023/08/07 02:34:59;;;;;;;0.40;0.40;;;24.10;51.00;;;;;;5082148;28;20024;-64
2023/08/07 02:37:24;;;;;;;0.40;0.40;;;24.10;51.50;;;;;;5081673;28;20042;-64
2023/08/07 02:39:50;;;;;;;0.50;0.50;;;24.10;51.00;;;;;;5084405;28;20043;-66
2023/08/07 02:42:16;;;;;;;0.45;0.45;;;24.10;51.00;;;;;;5079367;28;20479;-65
2023/08/07 02:44:41;;;;;;;0.38;0.38;;;24.10;51.00;;;;;;5080256;28;20047;-64
2023/08/07 02:47:07;;;;;;;0.50;0.50;;;24.10;51.00;;;;;;5080725;28;20471;-63
2023/08/07 02:49:32;;;;;;;0.50;0.50;;;24.10;51.00;;;;;;5082138;28;20028;-64
2023/08/07 02:51:58;;;;;;;0.50;0.50;;;24.10;51.00;;;;;;5079392;28;20016;-64
2023/08/07 02:54:24;;;;;;;0.50;0.50;;;24.10;51.00;;;;;;5078494;28;20517;-65
2023/08/07 02:56:49;;;;;;;0.47;0.47;;;24.00;51.00;;;;;;5080839;28;20043;-64
2023/08/07 02:59:15;;;;;;;0.40;0.40;;;24.00;50.90;;;;;;5080199;28;20028;-66
2023/08/07 03:01:43;;;;;;;0.68;0.50;;;24.10;51.00;;;;;;5064122;28;20395;-66
2023/08/07 03:04:09;;;;;;;0.40;0.40;;;24.00;50.90;;;;;;5077485;28;20037;-65
2023/08/07 03:06:35;;;;;;;0.82;0.50;;;24.00;50.90;;;;;;5078963;28;20021;-66
2023/08/07 03:09:00;;;;;;;0.57;0.57;;;24.00;50.90;;;;;;5080562;28;20464;-66
2023/08/07 03:11:26;;;;;;;0.43;0.43;;;24.00;50.90;;;;;;5080310;28;20490;-65
2023/08/07 03:13:51;;;;;;;0.40;0.40;;;24.00;50.90;;;;;;5064770;28;20050;-66
2023/08/07 03:16:17;;;;;;;0.40;0.40;;;24.00;51.00;;;;;;5082000;28;20073;-65
2023/08/07 03:18:43;;;;;;;0.60;0.50;;;24.00;51.00;;;;;;5080991;28;20159;-64
2023/08/07 03:21:09;;;;;;;0.70;0.50;;;24.00;51.00;;;;;;5079334;28;20024;-65
2023/08/07 03:23:34;;;;;;;0.60;0.50;;;24.00;51.00;;;;;;5078999;28;20557;-66
2023/08/07 03:26:08;;;;;;;0.50;0.50;;;24.00;51.00;;;;;;5080686;28;20028;-65
2023/08/07 03:28:34;;;;;;;0.40;0.40;;;24.00;50.90;;;;;;5080833;28;20043;-66
2023/08/07 03:31:01;;;;;;;0.85;0.57;;;24.00;50.90;;;;;;5080622;28;20406;-66
2023/08/07 03:33:26;;;;;;;0.38;0.38;;;23.90;50.90;;;;;;5080082;28;20522;-65
2023/08/07 03:35:52;;;;;;;0.60;0.50;;;24.00;51.50;;;;;;5079652;28;20107;-68
2023/08/07 03:38:18;;;;;;;0.60;0.50;;;24.00;50.90;;;;;;5079975;28;20021;-67
2023/08/07 03:40:44;;;;;;;0.45;0.45;;;23.90;50.90;;;;;;5081090;28;20048;-67
2023/08/07 03:43:09;;;;;;;0.73;0.60;;;23.90;50.90;;;;;;5082117;28;20033;-67
2023/08/07 03:45:35;;;;;;;0.50;0.50;;;23.90;50.90;;;;;;5080738;28;20029;-65
2023/08/07 03:48:01;;;;;;;0.50;0.50;;;23.90;50.90;;;;;;5063698;28;20491;-65
2023/08/07 03:50:26;;;;;;;0.52;0.50;;;23.90;50.90;;;;;;5078837;28;20488;-66
2023/08/07 03:52:52;;;;;;;0.65;0.50;;;23.90;50.90;;;;;;5079961;28;20538;-64
2023/08/07 03:55:18;;;;;;;0.50;0.50;;;23.90;50.90;;;;;;5069873;28;20063;-64
2023/08/07 03:57:44;;;;;;;0.45;0.45;;;23.90;50.90;;;;;;5078089;28;20037;-64
2023/08/07 04:00:10;;;;;;;0.43;0.40;;;23.90;50.90;;;;;;5077857;28;20487;-65
2023/08/07 04:02:36;;;;;;;0.73;0.50;;;23.90;50.90;;;;;;5079721;28;20449;-66
2023/08/07 04:05:04;;;;;;;0.68;0.50;;;23.90;50.90;;;;;;5080032;28;20050;-66
2023/08/07 04:07:30;;;;;;;0.40;0.40;;;23.90;50.90;;;;;;5078132;28;20098;-65
2023/08/07 04:09:56;;;;;;;0.52;0.50;;;23.90;50.90;;;;;;5078359;28;20467;-65
2023/08/07 04:12:22;;;;;;;0.65;0.63;;;23.90;50.80;;;;;;5076999;28;20100;-66
2023/08/07 04:14:47;;;;;;;0.40;0.40;;;23.80;50.80;;;;;;5078343;28;20458;-67
2023/08/07 04:17:13;;;;;;;0.47;0.45;;;23.80;50.80;;;;;;5077496;28;20106;-67
2023/08/07 04:19:38;;;;;;;0.45;0.45;;;23.80;50.80;;;;;;5079366;28;20028;-67
2023/08/07 04:22:04;;;;;;;0.63;0.57;;;23.90;50.80;;;;;;5077875;28;20024;-67
2023/08/07 04:24:30;;;;;;;0.47;0.47;;;23.80;51.30;;;;;;5077831;28;20505;-67
2023/08/07 04:26:55;;;;;;;0.50;0.50;;;23.80;50.80;;;;;;5079243;28;20556;-67
2023/08/07 04:29:21;;;;;;;0.40;0.40;;;23.80;50.80;;;;;;5077390;28;20107;-67
2023/08/07 04:31:46;;;;;;;0.68;0.50;;;23.80;50.80;;;;;;5077558;28;20020;-67
2023/08/07 04:34:12;;;;;;;0.57;0.50;;;23.80;50.80;;;;;;5078040;28;20028;-67
2023/08/07 04:36:38;;;;;;;0.70;0.52;;;23.80;50.80;;;;;;5063762;28;20032;-67
2023/08/07 04:39:03;;;;;;;0.52;0.50;;;23.80;50.80;;;;;;5079771;28;20032;-67
2023/08/07 04:41:29;;;;;;;0.45;0.45;;;23.80;50.80;;;;;;5078738;28;20042;-67
2023/08/07 04:43:55;;;;;;;0.50;0.50;;;23.80;50.80;;;;;;5078118;28;20032;-67
2023/08/07 04:46:20;;;;;;;0.50;0.50;;;23.80;50.80;;;;;;5076751;28;20081;-65
2023/08/07 04:48:47;;;;;;;0.50;0.50;;;23.70;50.80;;;;;;5077739;28;20020;-65
2023/08/07 04:51:13;;;;;;;0.40;0.40;;;23.70;50.70;;;;;;5078458;28;20027;-65
2023/08/07 04:53:39;;;;;;;0.40;0.40;;;23.70;51.30;;;;;;5080067;28;20032;-64
2023/08/07 04:56:04;;;;;;;0.65;0.50;;;23.70;50.80;;;;;;5078153;28;20632;-67
2023/08/07 04:58:30;;;;;;;0.55;0.50;;;23.70;50.70;;;;;;5077917;28;20112;-67
2023/08/07 05:00:56;;;;;;;0.40;0.40;;;23.70;50.70;;;;;;5076120;28;20352;-67
2023/08/07 05:03:23;;;;;;;0.50;0.40;;;23.70;51.20;;;;;;5077589;28;20028;-67
2023/08/07 05:05:48;;;;;;;0.65;0.47;;;23.70;50.80;;;;;;5076673;28;20028;-66
2023/08/07 05:08:14;;;;;;;0.50;0.50;;;23.70;50.70;;;;;;5078803;28;20025;-67
2023/08/07 05:10:39;;;;;;;0.50;0.50;;;23.70;50.70;;;;;;5077877;28;20050;-66
2023/08/07 05:13:05;;;;;;;0.60;0.60;;;23.70;50.80;;;;;;5077545;28;20031;-67
2023/08/07 05:15:31;;;;;;;0.50;0.50;;;23.70;50.80;;;;;;5061796;28;20028;-66
2023/08/07 05:17:56;;;;;;;0.55;0.55;;;23.70;50.80;;;;;;5078562;28;20035;-66
2023/08/07 05:20:22;;;;;;;0.60;0.50;;;23.70;50.80;;;;;;5079047;28;20028;-66
2023/08/07 05:22:49;;;;;;;0.47;0.40;;;23.70;50.80;;;;;;5080798;28;20533;-68
2023/08/07 05:25:15;;;;;;;1.10;0.60;;;23.70;50.80;;;;;;5075683;28;20028;-63
2023/08/07 05:27:45;;;;;;;1.00;0.50;;;23.70;50.80;;;;;;5077363;28;20107;-64
2023/08/07 05:30:11;;;;;;;1.00;0.65;;;23.70;50.80;;;;;;5077355;28;20407;-64
2023/08/07 05:32:37;;;;;;;0.75;0.50;;;23.70;50.80;;;;;;5078072;28;20035;-65
2023/08/07 05:35:07;;;;;;;0.93;0.50;;;23.70;50.70;;;;;;5078693;28;20480;-66
2023/08/07 05:37:33;;;;;;;;;;;23.70;50.60;;;;;;5078798;28;20392;-64
2023/08/07 05:39:58;;;;;;;0.95;0.70;;;23.70;50.50;;;;;;5078833;28;19915;-64
2023/08/07 05:42:24;;;;;;;0.65;0.50;;;23.70;50.50;;;;;;5078381;28;20025;-65
2023/08/07 05:44:50;;;;;;;0.60;0.50;;;23.60;50.50;;;;;;5078796;28;20028;-64
2023/08/07 05:47:15;;;;;;;0.57;0.50;;;23.60;50.50;;;;;;5075394;28;20077;-64
2023/08/07 05:49:41;;;;;;;0.63;0.57;;;23.60;50.50;;;;;;5077741;28;20024;-63
2023/08/07 05:52:07;;;;;;;0.60;0.50;;;23.60;50.50;;;;;;5078109;28;20017;-64
2023/08/07 05:54:33;;;;;;;0.80;0.70;;;23.60;50.50;;;;;;5076879;28;20353;-64
2023/08/07 05:56:59;;;;;;;0.60;0.60;;;23.60;50.50;;;;;;5076783;28;20115;-63
2023/08/07 05:59:24;;;;;;;0.60;0.60;;;23.60;50.50;;;;;;5076520;28;20044;-64
2023/08/07 06:01:51;;;;;;;1.05;0.60;;;23.60;50.50;;;;;;5059682;28;20063;-65
2023/08/07 06:04:16;;;;;;;1.10;0.43;;;23.60;50.60;;;;;;5078396;28;20028;-68
2023/08/07 06:06:42;;;;;;;0.55;0.50;;;23.60;50.60;;;;;;5060340;28;20054;-68
2023/08/07 06:09:08;;;;;;;1.30;0.60;;;23.60;50.70;;;;;;5078095;28;20025;-68
2023/08/07 06:11:34;;;;;;;1.10;0.70;;;23.50;50.60;;;;;;5077830;28;21020;-69
2023/08/07 06:14:00;;;;;;;0.50;0.50;;;23.60;50.70;;;;;;5078600;28;20036;-68
2023/08/07 06:16:27;;;;;;;0.57;0.57;;;23.60;50.60;;;;;;5075911;28;20036;-68
2023/08/07 06:18:53;;;;;;;0.85;0.60;;;23.60;50.60;;;;;;5061745;28;20029;-68
2023/08/07 06:21:20;;;;;;;1.00;0.70;;;23.60;50.50;;;;;;5063392;28;20024;-68
2023/08/07 06:23:46;;;;;;;1.02;0.68;;;23.60;50.60;;;;;;5079734;28;20024;-66
2023/08/07 06:26:12;;;;;;;0.82;0.60;;;23.60;50.50;;;;;;5079797;28;20034;-68
2023/08/07 06:28:38;;;;;;;0.75;0.60;;;23.60;50.50;;;;;;5079634;28;20024;-67
2023/08/07 06:31:08;;;;;;;1.40;0.70;;;23.60;50.40;;;;;;5080735;28;20035;-68
2023/08/07 06:33:34;;;;;;;1.05;0.60;;;23.70;50.50;;;;;;5080403;28;20526;-68
2023/08/07 06:36:00;;;;;;;0.80;0.60;;;23.70;50.40;;;;;;5081596;28;20044;-66
2023/08/07 06:38:26;;;;;;;0.68;0.55;;;23.70;50.50;;;;;;5082304;28;20032;-66
2023/08/07 06:40:52;;;;;;;0.70;0.60;;;23.70;50.50;;;;;;5080785;28;20032;-67
2023/08/07 06:43:18;;;;;;;1.08;0.70;;;23.70;50.40;;;;;;5080735;28;20028;-67
2023/08/07 06:45:46;;;;;;;1.00;0.60;;;23.70;50.40;;;;;;5076563;28;20364;-66
2023/08/07 06:48:12;;;;;;;0.68;0.68;;;23.70;50.40;;;;;;5080304;28;20173;-67
2023/08/07 06:50:37;;;;;;;0.90;0.70;;;23.70;50.30;;;;;;5081022;28;20104;-67
2023/08/07 06:53:03;;;;;;;1.33;0.63;;;23.80;50.40;;;;;;5077576;28;20028;-66
2023/08/07 06:55:29;;;;;;;0.80;0.60;;;23.70;50.20;;;;;;5063746;28;20573;-66
2023/08/07 06:57:54;;;;;;;1.10;0.70;;;23.80;50.30;;;;;;5081577;28;20479;-66
2023/08/07 07:00:20;;;;;;;1.13;0.60;;;23.80;50.20;;;;;;5080223;28;20165;-66
2023/08/07 07:02:46;;;;;;;1.17;0.60;;;23.80;50.20;;;;;;5077437;28;20036;-66
2023/08/07 07:05:11;;;;;;;2.38;0.70;;;23.80;50.10;;;;;;5080750;28;20020;-64
2023/08/07 07:07:37;;;;;;;0.85;0.70;;;23.80;50.30;;;;;;5080088;28;20601;-65
2023/08/07 07:10:03;;;;;;;0.77;0.60;;;23.90;50.30;;;;;;5080112;28;20459;-65
2023/08/07 07:12:29;;;;;;;0.65;0.60;;;23.80;50.40;;;;;;5079731;28;20032;-66
2023/08/07 07:14:55;;;;;;;1.00;0.73;;;23.90;50.10;;;;;;5082464;28;20032;-65
2023/08/07 07:17:20;;;;;;;1.02;0.60;;;23.90;50.10;;;;;;5079905;28;20048;-65
2023/08/07 07:19:46;;;;;;;2.50;0.80;;;23.90;50.10;;;;;;5080800;28;20078;-65
2023/08/07 07:22:11;;;;;;;1.55;0.73;;;23.90;50.10;;;;;;5062049;28;20046;-65
2023/08/07 07:24:38;;;;;;;1.20;0.73;;;23.90;50.00;;;;;;5078119;28;20360;-64
2023/08/07 07:27:04;;;;;;;0.65;0.60;;;23.90;50.00;;;;;;5080182;28;20030;-65
2023/08/07 07:29:30;;;;;;;0.60;0.60;;;23.90;49.90;;;;;;5078849;28;20028;-66
2023/08/07 07:31:56;;;;;;;0.93;0.73;;;23.90;50.00;;;;;;5077158;28;20051;-66
2023/08/07 07:34:22;;;;;;;1.00;0.70;;;24.00;50.00;;;;;;5080702;28;20028;-66
2023/08/07 07:36:47;;;;;;;1.02;0.70;;;24.00;50.00;;;;;;5079663;28;20147;-65
2023/08/07 07:39:13;;;;;;;0.93;0.63;;;24.00;50.00;;;;;;5079443;28;20058;-65
2023/08/07 07:41:38;;;;;;;0.90;0.60;;;24.00;50.00;;;;;;5080176;28;20118;-65
2023/08/07 07:44:04;;;;;;;1.90;0.55;;;24.00;50.20;;;;;;5081441;28;20035;-66
2023/08/07 07:46:31;;;;;;;0.70;0.68;;;24.00;50.10;;;;;;5079848;28;20483;-65
2023/08/07 07:48:57;;;;;;;1.27;0.63;;;24.00;50.00;;;;;;5081614;28;20016;-66
2023/08/07 07:51:23;;;;;;;0.68;0.60;;;24.00;50.10;;;;;;5079439;28;20035;-65
2023/08/07 07:53:49;;;;;;;1.23;0.70;;;24.00;50.10;;;;;;5078910;28;20036;-65
2023/08/07 07:56:14;;;;;;;1.70;0.80;;;24.00;50.10;;;;;;5078977;28;20036;-67
2023/08/07 07:58:40;;;;;;;1.45;0.70;;;24.00;50.20;;;;;;5077051;28;20506;-66
2023/08/07 08:01:07;;;;;;;1.15;0.68;;;24.10;50.10;;;;;;5076838;28;20020;-65
2023/08/07 08:03:32;;;;;;;1.85;0.70;;;24.10;50.00;;;;;;5078160;28;20494;-65
2023/08/07 08:05:58;;;;;;;1.42;0.60;;;24.10;50.00;;;;;;5077787;28;20029;-65
2023/08/07 08:08:24;;;;;;;0.93;0.68;;;24.10;50.10;;;;;;5078534;28;20463;-66
2023/08/07 08:10:51;;;;;;;0.73;0.57;;;24.10;50.00;;;;;;5077149;28;20020;-65
2023/08/07 08:13:17;;;;;;;1.63;0.73;;;24.10;50.00;;;;;;5076648;28;20052;-65
2023/08/07 08:15:43;;;;;;;1.48;0.70;;;24.10;50.00;;;;;;5080515;28;20025;-67
2023/08/07 08:18:09;;;;;;;1.65;0.80;;;24.10;50.00;;;;;;5077761;28;20020;-68
2023/08/07 08:20:34;;;;;;;1.67;0.70;;;24.10;50.00;;;;;;5076931;28;20036;-67
2023/08/07 08:23:00;;;;;;;1.08;0.80;;;24.10;50.00;;;;;;5079315;28;20542;-68
2023/08/07 08:25:25;;;;;;;1.30;0.70;;;24.20;50.00;;;;;;5062368;28;20443;-68
2023/08/07 08:27:51;;;;;;;0.80;0.60;;;24.20;50.00;;;;;;5078723;28;20031;-68
2023/08/07 08:30:17;;;;;;;1.38;0.70;;;24.20;50.00;;;;;;5077769;28;20020;-69
2023/08/07 08:32:43;;;;;;;1.25;0.80;;;24.10;50.00;;;;;;5077850;28;20032;-68
2023/08/07 08:35:09;;;;;;;0.82;0.70;;;24.20;50.10;;;;;;5079442;28;20023;-68
2023/08/07 08:37:35;;;;;;;1.33;0.80;;;24.20;50.00;;;;;;5078237;28;20379;-69
2023/08/07 08:40:01;;;;;;;0.95;0.73;;;24.20;50.10;;;;;;5081165;28;20039;-68
2023/08/07 08:42:27;;;;;;;1.33;0.70;;;24.20;50.00;;;;;;5077524;28;20035;-68
2023/08/07 08:44:55;;;;;;;0.85;0.60;;;24.20;50.00;;;;;;5077641;28;20082;-69
2023/08/07 08:47:26;;;;;;;0.95;0.60;;;24.20;50.00;;;;;;5075491;28;20024;-68
2023/08/07 08:50:02;;;;;;;2.20;0.77;;;24.20;49.90;;;;;;5076479;28;20372;-68
2023/08/07 08:52:35;;;;;;;0.95;0.68;;;24.20;50.00;;;;;;5078692;28;20904;-68
2023/08/07 08:55:01;;;;;;;0.95;0.63;;;24.30;50.00;;;;;;5074233;28;20036;-66
2023/08/07 08:57:28;;;;;;;0.80;0.70;;;24.30;50.00;;;;;;5076851;28;20486;-66
2023/08/07 08:59:54;;;;;;;1.35;0.70;;;24.30;50.00;;;;;;5077424;28;20017;-65
2023/08/07 09:02:19;;;;;;;1.20;0.80;;;24.20;49.90;;;;;;5057125;28;20028;-65
2023/08/07 09:04:45;;;;;;;1.00;0.68;;;24.30;50.50;;;;;;5076353;28;20036;-65
2023/08/07 09:07:14;;;;;;;1.05;0.63;;;24.30;50.00;;;;;;5077924;28;20040;-66
2023/08/07 09:09:41;;;;;;;1.45;0.73;;;24.30;50.00;;;;;;5076608;28;20079;-65
2023/08/07 09:12:20;;;;;;;0.60;0.60;;;24.30;50.60;;;;;;5078161;28;20031;-64
2023/08/07 09:14:52;;;;;;;1.23;0.80;;;24.30;50.10;;;;;;5077953;28;20068;-63
2023/08/07 09:17:19;;;;;;;1.45;0.80;;;24.30;50.10;;;;;;5076896;28;20028;-65
2023/08/07 09:19:45;;;;;;;0.82;0.70;;;24.30;50.00;;;;;;5079308;28;20036;-67
2023/08/07 09:22:11;;;;;;;1.35;0.85;;;24.30;50.40;;;;;;5077919;28;20033;-63
2023/08/07 09:24:36;;;;;;;1.02;0.60;;;24.30;49.90;;;;;;5079495;28;20034;-67
2023/08/07 09:27:02;;;;;;;0.73;0.60;;;24.30;49.90;;;;;;5077487;28;20032;-68
2023/08/07 09:29:28;;;;;;;1.33;0.80;;;24.30;49.90;;;;;;5078653;28;20020;-68
2023/08/07 09:31:54;;;;;;;0.95;0.70;;;24.30;50.00;;;;;;5076194;28;20059;-68
2023/08/07 09:34:21;;;;;;;1.10;0.70;;;24.30;50.00;;;;;;5076885;28;20077;-68
2023/08/07 09:36:46;;;;;;;2.33;0.75;;;24.30;50.00;;;;;;5078608;28;20035;-68
2023/08/07 09:39:12;;;;;;;1.60;0.82;;;24.30;49.90;;;;;;5076757;28;20032;-68
2023/08/07 09:41:38;;;;;;;0.80;0.70;;;24.40;50.00;;;;;;5079076;28;20028;-68
2023/08/07 09:44:13;;;;;;;0.90;0.65;;;24.40;50.00;;;;;;5077234;28;20159;-68
2023/08/07 09:46:45;;;;;;;2.67;0.77;;;24.40;50.00;;;;;;5079106;28;20024;-69
2023/08/07 09:49:10;;;;;;;1.15;0.70;;;24.40;50.00;;;;;;5077637;28;20509;-69
2023/08/07 09:51:47;;;;;;;1.00;0.70;;;24.40;50.00;;;;;;5076609;28;20024;-69
2023/08/07 09:54:13;;;;;;;1.30;0.75;;;24.40;50.00;;;;;;5076459;28;20059;-68
2023/08/07 09:56:40;;;;;;;0.90;0.70;;;24.40;50.00;;;;;;5080179;28;20040;-68
2023/08/07 09:59:06;;;;;;;1.38;0.70;;;24.40;50.50;;;;;;5082429;28;20510;-67
2023/08/07 10:01:32;;;;;;;1.08;0.80;;;24.40;49.90;;;;;;5081402;28;20067;-67
2023/08/07 10:03:58;;;;;;;0.73;0.68;;;24.50;50.00;;;;;;5079776;28;20052;-67
2023/08/07 10:06:24;;;;;;;0.77;0.70;;;24.40;50.00;;;;;;5084565;28;20035;-68
2023/08/07 10:08:51;;;;;;;1.33;0.70;;;24.40;49.90;;;;;;5079780;28;20029;-68
2023/08/07 10:11:17;;;;;;;1.00;0.75;;;24.50;49.90;;;;;;5067004;28;20111;-68
2023/08/07 10:13:43;;;;;;;0.90;0.70;;;24.50;49.80;;;;;;5081105;28;20514;-68
2023/08/07 10:16:09;;;;;;;1.42;0.70;;;24.50;49.80;;;;;;5080485;28;20391;-68
2023/08/07 10:18:35;;;;;;;1.00;0.70;;;24.50;49.80;;;;;;5070538;28;20043;-68
2023/08/07 10:21:03;;;;;;;1.17;0.77;;;24.50;49.80;;;;;;5079019;28;20032;-68
2023/08/07 10:23:29;;;;;;;1.20;0.60;;;24.50;49.70;;;;;;5081719;28;20382;-68
2023/08/07 10:25:56;;;;;;;1.10;0.70;;;24.50;49.70;;;;;;5079067;28;20531;-67
2023/08/07 10:28:23;;;;;;;0.95;0.80;;;24.50;49.70;;;;;;5081140;28;20556;-68
2023/08/07 10:30:49;;;;;;;0.80;0.70;;;24.50;49.60;;;;;;5066096;28;20024;-68
2023/08/07 10:33:17;;;;;;;2.17;0.80;;;24.50;49.60;;;;;;5083916;28;20346;-68
2023/08/07 10:35:48;;;;;;;1.27;0.65;;;24.50;49.70;;;;;;5080631;28;20448;-68
2023/08/07 10:38:14;;;;;;;1.15;0.70;;;24.50;49.80;;;;;;5080538;28;20029;-68
2023/08/07 10:40:58;;;;;;;0.75;0.60;;;24.50;50.40;;;;;;5081180;28;20024;-68
2023/08/07 10:43:24;;;;;;;0.90;0.68;;;24.50;49.90;;;;;;5081781;28;20439;-68
2023/08/07 10:45:50;;;;;;;1.67;0.77;;;24.50;49.80;;;;;;5080384;28;20067;-69
2023/08/07 10:48:20;;;;;;;0.65;0.60;;;24.50;49.90;;;;;;5079113;28;20056;-68
2023/08/07 10:50:54;;;;;;;1.50;0.80;;;24.50;49.80;;;;;;5080657;28;20491;-68
2023/08/07 10:53:35;;;;;;;0.70;0.60;;;24.50;50.00;;;;;;5080997;28;20477;-68
2023/08/07 10:56:14;;;;;;;1.38;0.85;;;24.50;49.90;;;;;;5081863;28;20044;-68
2023/08/07 10:58:40;;;;;;;;;;;24.50;49.80;;;;;;5081111;28;20037;-68
2023/08/07 11:01:17;;;;;;;1.95;0.70;;;24.50;49.90;;;;;;5079904;28;19987;-68
2023/08/07 11:03:43;;;;;;;1.25;0.77;;;24.50;49.90;;;;;;5061817;28;20480;-68
2023/08/07 11:06:12;;;;;;;1.42;0.70;;;24.50;50.00;;;;;;5080902;28;20027;-68
2023/08/07 11:08:38;;;;;;;1.70;0.70;;;24.50;50.00;;;;;;5064817;28;20027;-69
2023/08/07 11:11:07;;;;;;;0.93;0.68;;;24.50;50.00;;;;;;5065603;28;20032;-68
2023/08/07 11:13:33;;;;;;;1.10;0.80;;;24.50;50.00;;;;;;5080409;28;20032;-67
2023/08/07 11:16:01;;;;;;;1.33;0.80;;;24.50;50.00;;;;;;5081391;28;20040;-68
2023/08/07 11:18:27;;;;;;;1.05;0.80;;;24.60;50.10;;;;;;5081628;28;20030;-67
2023/08/07 11:20:56;;;;;;;1.10;0.70;;;24.60;50.10;;;;;;5079771;28;20120;-69
2023/08/07 11:23:25;;;;;;;0.77;0.60;;;24.60;50.10;;;;;;5079660;28;20024;-67
2023/08/07 11:25:52;;;;;;;1.70;0.70;;;24.60;50.20;;;;;;5078635;28;20404;-67
2023/08/07 11:28:22;;;;;;;1.40;0.70;;;24.60;50.10;;;;;;5078626;28;20025;-67
2023/08/07 11:30:50;;;;;;;1.27;0.60;;;24.60;50.20;;;;;;5079942;28;20051;-67
2023/08/07 11:33:19;;;;;;;0.77;0.60;;;24.60;50.40;;;;;;5078448;28;20046;-67
2023/08/07 11:35:45;;;;;;;1.35;0.80;;;24.60;50.30;;;;;;5082348;28;20579;-66
2023/08/07 11:38:11;;;;;;;0.98;0.70;;;24.60;50.30;;;;;;5080241;28;20055;-67
2023/08/07 11:40:36;;;;;;;1.42;0.75;;;24.60;50.30;;;;;;5079359;28;20392;-67
2023/08/07 11:43:02;;;;;;;0.70;0.70;;;24.70;50.20;;;;;;5079949;28;20085;-67
2023/08/07 11:45:28;;;;;;;2.10;0.85;;;24.70;50.20;;;;;;5078611;28;20032;-65
2023/08/07 11:47:56;;;;;;;0.70;0.60;;;24.70;50.20;;;;;;5077352;28;20025;-68
2023/08/07 11:50:22;;;;;;;1.38;0.80;;;24.70;50.20;;;;;;5077694;28;20562;-68
2023/08/07 11:52:48;;;;;;;1.25;0.80;;;24.70;50.10;;;;;;5080208;28;20025;-67
2023/08/07 11:55:18;;;;;;;0.70;0.60;;;24.70;50.10;;;;;;5078981;28;20112;-67
2023/08/07 11:57:46;;;;;;;1.38;0.70;;;24.70;50.10;;;;;;5078892;28;20024;-67
2023/08/07 12:00:13;;;;;;;1.25;0.70;;;24.70;50.10;;;;;;5078524;28;20503;-67
2023/08/07 12:02:46;;;;;;;1.58;0.80;;;24.70;50.10;;;;;;5078361;28;20027;-67
2023/08/07 12:05:12;;;;;;;0.82;0.63;;;24.70;50.10;;;;;;5078910;28;20069;-67
2023/08/07 12:07:39;;;;;;;1.15;0.70;;;24.70;50.10;;;;;;5078453;28;20024;-67
2023/08/07 12:10:11;;;;;;;1.25;0.60;;;24.70;50.10;;;;;;5079835;28;20082;-66
2023/08/07 12:12:37;;;;;;;1.00;0.80;;;24.70;50.10;;;;;;5062845;28;20024;-67
2023/08/07 12:15:09;;;;;;;0.80;0.70;;;24.70;50.10;;;;;;5080691;28;20032;-67
2023/08/07 12:17:38;;;;;;;1.00;0.80;;;24.70;50.20;;;;;;5079497;28;20441;-67
2023/08/07 12:20:06;;;;;;;1.77;0.77;;;24.80;50.10;;;;;;5080671;28;20510;-66
2023/08/07 12:22:32;;;;;;;1.38;0.80;;;24.80;50.00;;;;;;5079689;28;20495;-67
2023/08/07 12:24:58;;;;;;;0.98;0.70;;;24.80;49.90;;;;;;5078668;28;20071;-65
2023/08/07 12:27:23;;;;;;;1.83;0.60;;;24.80;50.00;;;;;;5079477;28;20020;-67
2023/08/07 12:29:49;;;;;;;1.55;0.82;;;24.80;50.00;;;;;;5080164;28;20044;-67
2023/08/07 12:32:15;;;;;;;0.98;0.60;;;24.80;49.90;;;;;;5077493;28;20020;-68
2023/08/07 12:34:40;;;;;;;0.85;0.70;;;24.80;49.90;;;;;;5077266;28;20075;-67
2023/08/07 12:37:06;;;;;;;1.38;0.65;;;24.80;49.90;;;;;;5076137;28;20031;-68
2023/08/07 12:39:32;;;;;;;1.05;0.70;;;24.80;50.40;;;;;;5077041;28;20036;-68
2023/08/07 12:41:58;;;;;;;0.90;0.70;;;24.80;49.90;;;;;;5078276;28;20025;-67
2023/08/07 12:44:23;;;;;;;1.65;0.70;;;24.80;49.80;;;;;;5077758;28;20024;-68